Time;durP1;ratioP1;P1;durP2;ratioP2;P2;SDS_P1;SDS_P2;PMS_P1;PMS_P2;Temp;Humidity;BMP_temperature;BMP_pressure;BME280_temperature;BME280_humidity;BME280_pressure;Samples;Min_cycle;Max_cycle;Signal;HPM_P1;HPM_P2
2021/05/07 00:01:57;;;;;;;10.67;7.70;;;;;;;9.53;65.79;97903.70;124780;1101;64253;-82
2021/05/07 00:04:23;;;;;;;9.50;7.23;;;;;;;9.53;66.13;97897.50;124728;1101;64319;-81
2021/05/07 00:06:53;;;;;;;8.20;7.03;;;;;;;9.51;67.03;97904.78;124741;1096;64724;-80
2021/05/07 00:09:20;;;;;;;7.63;6.83;;;;;;;9.43;67.63;97900.92;124782;1095;64358;-80
2021/05/07 00:11:47;;;;;;;11.53;7.53;;;;;;;9.32;67.44;97900.06;124734;1101;64428;-81
2021/05/07 00:14:14;;;;;;;10.80;7.83;;;;;;;9.30;67.47;97908.18;124781;1101;64329;-80
2021/05/07 00:16:41;;;;;;;9.23;7.27;;;;;;;9.28;67.94;97903.95;124745;1097;64281;-79
2021/05/07 00:19:08;;;;;;;8.27;6.47;;;;;;;9.21;68.11;97907.07;124786;1101;64368;-80
2021/05/07 00:21:35;;;;;;;6.50;5.07;;;;;;;9.19;68.38;97898.39;124728;1096;64312;-79
2021/05/07 00:24:02;;;;;;;4.90;3.80;;;;;;;9.23;68.41;97898.98;124811;1101;64432;-80
2021/05/07 00:26:29;;;;;;;5.17;3.57;;;;;;;9.26;68.38;97893.42;124807;1096;64329;-78
2021/05/07 00:28:56;;;;;;;4.80;3.57;;;;;;;9.25;68.49;97893.56;124744;1097;64278;-79
2021/05/07 00:31:22;;;;;;;5.70;3.50;;;;;;;9.24;68.51;97890.03;124738;1102;64559;-80
2021/05/07 00:33:49;;;;;;;4.70;3.80;;;;;;;9.22;68.73;97887.52;124779;1097;64378;-80
2021/05/07 00:36:16;;;;;;;4.30;3.70;;;;;;;9.19;68.90;97889.58;124762;1101;64326;-80
2021/05/07 00:38:43;;;;;;;5.07;4.03;;;;;;;9.16;69.32;97880.03;124775;1101;64444;-80
2021/05/07 00:41:09;;;;;;;6.50;3.80;;;;;;;9.11;69.34;97870.70;124726;1101;64406;-78
2021/05/07 00:43:40;;;;;;;4.53;3.67;;;;;;;9.06;69.54;97881.72;124770;1097;64348;-80
2021/05/07 00:46:07;;;;;;;5.73;4.23;;;;;;;9.07;69.58;97867.45;124756;1101;64333;-79
2021/05/07 00:48:35;;;;;;;4.57;3.80;;;;;;;9.09;69.73;97854.90;124747;1101;64339;-79
2021/05/07 00:51:02;;;;;;;6.07;3.87;;;;;;;9.08;69.92;97857.66;124780;1101;64310;-79
2021/05/07 00:53:29;;;;;;;8.37;4.07;;;;;;;9.05;69.71;97849.94;124763;1101;64320;-79
2021/05/07 00:55:56;;;;;;;8.07;4.60;;;;;;;9.06;69.65;97851.62;124739;1101;64320;-80
2021/05/07 00:58:23;;;;;;;7.37;4.60;;;;;;;9.06;69.65;97839.20;124865;1101;64328;-79
2021/05/07 01:00:51;;;;;;;6.83;4.30;;;;;;;9.07;69.86;97845.36;124795;1096;64323;-80
2021/05/07 01:03:19;;;;;;;6.87;4.43;;;;;;;9.03;70.03;97833.27;124734;1101;64380;-79
2021/05/07 01:05:47;;;;;;;10.57;8.77;;;;;;;9.01;70.34;97836.06;124725;1101;64376;-79
2021/05/07 01:08:18;;;;;;;9.17;8.00;;;;;;;8.98;70.71;97831.83;124888;1096;64528;-78
2021/05/07 01:10:45;;;;;;;8.20;6.27;;;;;;;9.00;70.81;97823.72;124843;1101;64323;-80
2021/05/07 01:13:12;;;;;;;9.47;5.87;;;;;;;9.04;70.94;97816.38;124758;1097;64320;-79
2021/05/07 01:15:39;;;;;;;6.65;5.80;;;;;;;9.12;70.91;97814.78;124748;1101;64360;-80
2021/05/07 01:18:05;;;;;;;12.23;6.33;;;;;;;9.15;70.64;97819.01;124723;1096;64515;-79
2021/05/07 01:20:33;;;;;;;12.10;7.30;;;;;;;9.16;70.76;97818.03;124754;1101;64416;-79
2021/05/07 01:23:04;;;;;;;11.45;7.75;;;;;;;9.14;70.71;97815.52;124810;1096;64262;-79
2021/05/07 01:25:34;;;;;;;8.45;7.15;;;;;;;9.10;70.76;97821.19;124822;1096;64330;-80
2021/05/07 01:28:05;;;;;;;11.43;7.43;;;;;;;9.07;70.86;97822.28;124788;1096;64326;-79
2021/05/07 01:30:41;;;;;;;14.83;7.80;;;;;;;9.05;71.34;97818.05;124777;1101;64788;-80
2021/05/07 01:33:13;;;;;;;8.93;6.70;;;;;;;9.04;71.05;97811.89;124763;1101;64329;-80
2021/05/07 01:35:41;;;;;;;7.90;6.05;;;;;;;9.09;71.16;97807.06;124824;1101;64269;-80
2021/05/07 01:38:13;;;;;;;7.73;5.97;;;;;;;9.11;71.13;97796.28;124883;1095;64333;-80
2021/05/07 01:40:51;;;;;;;8.25;6.70;;;;;;;9.11;71.46;97793.63;124863;1101;64265;-80
2021/05/07 01:43:18;;;;;;;9.60;7.60;;;;;;;9.10;71.62;97783.98;124811;1101;64384;-80
2021/05/07 01:45:47;;;;;;;9.67;8.10;;;;;;;9.06;71.47;97786.05;124868;1095;64336;-79
2021/05/07 01:48:15;;;;;;;11.25;8.50;;;;;;;9.04;71.63;97792.45;124803;1101;64351;-80
2021/05/07 01:50:44;;;;;;;8.30;7.10;;;;;;;9.00;71.81;97776.76;124749;1101;64249;-79
2021/05/07 01:53:12;;;;;;;8.10;6.33;;;;;;;9.00;71.73;97784.73;124768;1101;64333;-79
2021/05/07 01:55:47;;;;;;;10.47;6.83;;;;;;;9.01;72.10;97790.88;124841;1097;65540;-79
2021/05/07 01:58:16;;;;;;;7.37;5.80;;;;;;;9.03;71.94;97780.11;124865;1097;64303;-79
2021/05/07 02:00:44;;;;;;;6.55;5.45;;;;;;;9.08;71.67;97785.91;124858;1101;64339;-80
2021/05/07 02:03:12;;;;;;;8.50;5.60;;;;;;;9.08;71.84;97792.06;124762;1101;64253;-81
2021/05/07 02:05:40;;;;;;;7.25;5.50;;;;;;;9.10;71.74;97786.64;124787;1101;64316;-79
2021/05/07 02:08:08;;;;;;;5.83;5.00;;;;;;;9.12;71.56;97776.73;124734;1101;64250;-80
2021/05/07 02:10:37;;;;;;;8.20;4.93;;;;;;;9.09;71.65;97775.17;124796;1101;64320;-79
2021/05/07 02:13:07;;;;;;;7.65;5.40;;;;;;;9.05;71.47;97771.05;124936;1095;64333;-79
2021/05/07 02:15:35;;;;;;;7.35;4.95;;;;;;;9.03;71.44;97770.35;124864;1096;64287;-80
2021/05/07 02:18:03;;;;;;;5.00;4.50;;;;;;;9.04;71.31;97774.69;124934;1101;64434;-82
2021/05/07 02:20:30;;;;;;;8.07;6.47;;;;;;;9.04;71.74;97771.19;124859;1101;64483;-81
2021/05/07 02:22:58;;;;;;;8.70;7.57;;;;;;;9.09;71.86;97756.56;125006;1101;64323;-79
2021/05/07 02:25:27;;;;;;;6.73;5.73;;;;;;;9.11;71.72;97753.77;124882;1101;64307;-84
2021/05/07 02:27:56;;;;;;;6.60;5.90;;;;;;;9.10;71.82;97754.74;124750;1101;64335;-82
2021/05/07 02:30:32;;;;;;;8.67;7.67;;;;;;;9.09;71.90;97750.41;124860;1097;64246;-82
2021/05/07 02:32:59;;;;;;;8.43;7.47;;;;;;;9.06;71.79;97745.31;124782;1101;64434;-80
2021/05/07 02:35:27;;;;;;;14.10;11.53;;;;;;;9.03;72.19;97740.25;124771;1101;64542;-79
2021/05/07 02:37:54;;;;;;;8.07;6.90;;;;;;;8.99;72.15;97735.19;124783;1101;64405;-80
2021/05/07 02:40:22;;;;;;;11.03;9.40;;;;;;;8.97;72.43;97723.83;124772;1096;64307;-80
2021/05/07 02:42:50;;;;;;;13.53;10.03;;;;;;;8.96;72.66;97738.10;124851;1097;64364;-81
2021/05/07 02:45:17;;;;;;;24.47;17.77;;;;;;;8.99;72.80;97729.04;124785;1101;64421;-81
2021/05/07 02:47:43;;;;;;;29.77;21.00;;;;;;;9.06;72.80;97714.30;124806;1096;64352;-81
2021/05/07 02:50:12;;;;;;;26.87;18.40;;;;;;;9.12;72.77;97720.92;124873;1097;64422;-81
2021/05/07 02:52:40;;;;;;;31.83;21.93;;;;;;;9.16;72.72;97717.02;124856;1097;64313;-81
2021/05/07 02:55:09;;;;;;;38.50;27.90;;;;;;;9.18;72.93;97715.93;124868;1101;64403;-79
2021/05/07 02:57:35;;;;;;;100.60;65.65;;;;;;;9.16;72.57;97714.37;124743;1095;64299;-81
2021/05/07 03:00:05;;;;;;;58.27;39.07;;;;;;;9.14;72.69;97706.53;124831;1101;64401;-81
2021/05/07 03:02:33;;;;;;;;;;;;;;;9.16;72.65;97715.23;124881;1101;64301;-79
2021/05/07 03:04:59;;;;;;;28.27;21.03;;;;;;;9.16;72.86;97717.02;124805;1101;64323;-80
2021/05/07 03:07:26;;;;;;;36.70;26.25;;;;;;;9.15;72.81;97712.69;124759;1101;64355;-81
2021/05/07 03:09:53;;;;;;;32.15;25.15;;;;;;;9.17;72.90;97705.44;124774;1101;64483;-80
2021/05/07 03:12:19;;;;;;;25.27;19.07;;;;;;;9.25;72.76;97702.16;124744;1101;64367;-80
2021/05/07 03:14:46;;;;;;;29.80;22.80;;;;;;;9.30;72.97;97710.60;124728;1101;64331;-81
2021/05/07 03:17:13;;;;;;;23.70;19.23;;;;;;;9.34;73.09;97709.36;124771;1096;64323;-81
2021/05/07 03:19:40;;;;;;;22.90;17.73;;;;;;;9.31;73.38;97698.98;124760;1095;64329;-80
2021/05/07 03:22:06;;;;;;;17.85;15.95;;;;;;;9.26;73.23;97702.02;124723;1101;64246;-80
2021/05/07 03:24:33;;;;;;;16.47;14.60;;;;;;;9.26;73.44;97707.33;124778;1101;64349;-80
2021/05/07 03:27:00;;;;;;;13.53;12.23;;;;;;;9.26;73.55;97709.15;124761;1096;64352;-80
2021/05/07 03:29:26;;;;;;;13.60;11.60;;;;;;;9.25;73.75;97708.31;124755;1101;64338;-80
2021/05/07 03:31:53;;;;;;;13.80;11.57;;;;;;;9.22;73.60;97704.09;124742;1101;64242;-82
2021/05/07 03:34:20;;;;;;;15.57;13.93;;;;;;;9.22;73.82;97708.57;124748;1097;64476;-79
2021/05/07 03:36:46;;;;;;;13.10;11.80;;;;;;;9.26;73.46;97706.49;124775;1101;64291;-79
2021/05/07 03:39:13;;;;;;;13.33;11.93;;;;;;;9.28;73.39;97713.38;124817;1096;64406;-80
2021/05/07 03:41:40;;;;;;;10.50;8.80;;;;;;;9.32;73.04;97706.84;124820;1096;64282;-79
2021/05/07 03:44:07;;;;;;;14.00;11.33;;;;;;;9.35;72.64;97719.88;124750;1101;64323;-80
2021/05/07 03:46:34;;;;;;;14.27;11.53;;;;;;;9.37;72.86;97720.61;124774;1101;64400;-79
2021/05/07 03:49:00;;;;;;;11.73;10.57;;;;;;;9.36;72.99;97718.90;124775;1101;64349;-79
2021/05/07 03:51:27;;;;;;;8.93;7.83;;;;;;;9.37;72.45;97723.27;124860;1096;64249;-80
2021/05/07 03:53:54;;;;;;;11.73;9.13;;;;;;;9.39;72.42;97726.62;124846;1101;64419;-81
2021/05/07 03:56:21;;;;;;;17.17;12.20;;;;;;;9.41;72.60;97724.69;124747;1095;64353;-80
2021/05/07 03:58:48;;;;;;;11.63;8.07;;;;;;;9.42;72.90;97730.84;124720;1101;64486;-80
2021/05/07 04:01:14;;;;;;;11.63;9.43;;;;;;;9.41;73.18;97727.34;124794;1096;64365;-82
2021/05/07 04:03:41;;;;;;;14.03;11.27;;;;;;;9.42;73.44;97729.02;124797;1095;64342;-79
2021/05/07 04:06:09;;;;;;;16.47;13.60;;;;;;;9.46;73.62;97737.61;124760;1097;64331;-79
2021/05/07 04:08:41;;;;;;;18.37;16.37;;;;;;;9.49;73.78;97731.19;124755;1101;64333;-80
2021/05/07 04:13:45;;;;;;;21.03;18.77;;;;;;;9.55;74.06;97742.15;124769;1101;64365;-80
2021/05/07 04:16:12;;;;;;;18.07;16.17;;;;;;;9.58;73.90;97744.55;124758;1096;64355;-79
2021/05/07 04:18:39;;;;;;;14.30;12.80;;;;;;;9.60;73.77;97739.12;124757;1096;64342;-80
2021/05/07 04:21:06;;;;;;;16.53;12.00;;;;;;;9.61;73.33;97746.11;124750;1096;64345;-79
2021/05/07 04:23:33;;;;;;;17.20;13.20;;;;;;;9.63;73.37;97752.99;124750;1096;64486;-80
2021/05/07 04:26:00;;;;;;;16.00;12.97;;;;;;;9.63;73.34;97750.33;124753;1097;64253;-79
2021/05/07 04:28:28;;;;;;;17.90;12.13;;;;;;;9.66;73.11;97759.88;124763;1101;64291;-80
2021/05/07 04:30:55;;;;;;;23.70;14.45;;;;;;;9.70;73.28;97745.36;124808;1097;64320;-79
2021/05/07 04:33:21;;;;;;;17.37;12.80;;;;;;;9.77;73.12;97749.20;124799;1101;64250;-81
2021/05/07 04:35:48;;;;;;;22.23;13.70;;;;;;;9.84;73.58;97750.36;124728;1101;64249;-80
2021/05/07 04:38:15;;;;;;;16.23;12.60;;;;;;;9.95;73.52;97732.65;124748;1097;64253;-81
2021/05/07 04:40:42;;;;;;;17.67;11.20;;;;;;;10.08;73.52;97738.62;124851;1096;64332;-79
2021/05/07 04:43:09;;;;;;;11.47;9.07;;;;;;;10.23;73.32;97733.81;124737;1101;64239;-80
2021/05/07 04:45:35;;;;;;;12.53;9.03;;;;;;;10.42;73.20;97733.09;124742;1101;64339;-80
2021/05/07 04:48:10;;;;;;;11.10;7.50;;;;;;;10.64;72.53;97737.42;124775;1101;64460;-80
2021/05/07 04:50:37;;;;;;;12.77;7.00;;;;;;;10.80;72.12;97744.92;124761;1101;64275;-81
2021/05/07 04:53:04;;;;;;;9.50;6.63;;;;;;;10.93;71.60;97738.36;124756;1101;64303;-81
2021/05/07 04:55:30;;;;;;;8.57;5.70;;;;;;;11.05;71.36;97751.58;124761;1097;64368;-80
2021/05/07 04:57:57;;;;;;;6.43;5.03;;;;;;;11.17;71.00;97747.83;124800;1096;64318;-81
2021/05/07 05:00:24;;;;;;;8.03;4.60;;;;;;;11.33;70.57;97745.46;124879;1101;64474;-81
2021/05/07 05:02:51;;;;;;;5.30;4.30;;;;;;;11.56;70.16;97739.88;124954;1101;64568;-80
2021/05/07 05:05:18;;;;;;;6.00;3.70;;;;;;;11.86;69.37;97744.25;124931;1101;64754;-82
2021/05/07 05:07:50;;;;;;;6.33;3.40;;;;;;;12.03;68.94;97740.88;124963;1096;64416;-80
2021/05/07 05:10:18;;;;;;;6.70;3.90;;;;;;;12.18;68.59;97733.24;124831;1101;64371;-83
2021/05/07 05:12:45;;;;;;;6.87;4.20;;;;;;;12.32;68.10;97733.77;124798;1101;64339;-81
2021/05/07 05:15:13;;;;;;;6.70;4.20;;;;;;;12.36;67.64;97738.69;124842;1101;64352;-80
2021/05/07 05:17:40;;;;;;;7.47;4.57;;;;;;;12.42;67.44;97730.08;124849;1095;64339;-79
2021/05/07 05:20:09;;;;;;;7.33;4.13;;;;;;;13.56;65.29;97725.30;124839;1101;64355;-80
2021/05/07 05:22:35;;;;;;;5.47;3.80;;;;;;;14.45;63.20;97715.42;124852;1101;64330;-80
2021/05/07 05:25:05;;;;;;;5.27;4.00;;;;;;;15.09;61.63;97714.09;124808;1097;64322;-79
2021/05/07 05:27:32;;;;;;;;;;;;;;;15.61;61.27;97710.33;124851;1101;64888;-79
2021/05/07 05:29:59;;;;;;;4.40;3.20;;;;;;;16.17;59.43;97700.64;124770;1101;64332;-79
2021/05/07 05:32:26;;;;;;;3.80;2.97;;;;;;;16.67;58.04;97701.38;124794;1095;64271;-79
2021/05/07 05:34:53;;;;;;;6.83;3.63;;;;;;;16.98;57.35;97709.53;124756;1096;64211;-81
2021/05/07 05:37:20;;;;;;;4.03;2.67;;;;;;;17.25;56.47;97718.16;124750;1101;64247;-80
2021/05/07 05:39:47;;;;;;;4.10;2.80;;;;;;;17.55;55.40;97725.36;124894;1097;64341;-80
2021/05/07 05:42:14;;;;;;;3.90;2.90;;;;;;;17.70;53.49;97728.14;124749;1096;64327;-81
2021/05/07 05:44:40;;;;;;;2.60;1.80;;;;;;;17.82;52.31;97730.45;124810;1096;64410;-79
2021/05/07 05:47:07;;;;;;;2.47;2.10;;;;;;;17.07;53.54;97727.31;124763;1101;64331;-80
2021/05/07 05:49:35;;;;;;;2.23;1.90;;;;;;;16.49;54.01;97728.48;124715;1097;64403;-80
2021/05/07 05:52:01;;;;;;;2.13;1.93;;;;;;;16.81;53.76;97734.82;124785;1101;64378;-80
2021/05/07 05:54:28;;;;;;;2.43;1.60;;;;;;;17.31;53.65;97737.13;124723;1101;64330;-79
2021/05/07 05:56:55;;;;;;;2.17;1.80;;;;;;;16.75;53.14;97735.48;124782;1101;64272;-79
2021/05/07 05:59:22;;;;;;;1.80;1.53;;;;;;;16.12;53.65;97746.00;124800;1101;64295;-78
2021/05/07 06:01:48;;;;;;;3.77;1.87;;;;;;;15.57;53.80;97750.11;124756;1101;64406;-79
2021/05/07 06:04:15;;;;;;;3.47;1.53;;;;;;;15.07;54.47;97753.65;124742;1101;64467;-79
2021/05/07 06:06:42;;;;;;;12.90;3.00;;;;;;;14.56;55.49;97758.10;124779;1101;64300;-80
2021/05/07 06:09:09;;;;;;;3.67;1.70;;;;;;;14.10;56.05;97770.79;124818;1101;64246;-80
2021/05/07 06:11:36;;;;;;;2.10;1.35;;;;;;;13.72;57.05;97772.80;124780;1096;64333;-80
2021/05/07 06:14:04;;;;;;;11.37;3.17;;;;;;;13.48;57.67;97775.21;124723;1097;64480;-80
2021/05/07 06:16:31;;;;;;;3.67;1.60;;;;;;;13.22;57.92;97775.05;124884;1096;64362;-80
2021/05/07 06:18:57;;;;;;;2.03;1.30;;;;;;;13.00;58.43;97774.46;124830;1095;64326;-80
2021/05/07 06:21:24;;;;;;;3.63;1.60;;;;;;;12.83;59.14;97776.09;124886;1096;64278;-80
2021/05/07 06:23:51;;;;;;;2.53;1.80;;;;;;;12.67;59.78;97776.72;124792;1096;64331;-80
2021/05/07 06:26:18;;;;;;;2.33;1.47;;;;;;;12.55;61.01;97769.02;124804;1097;64329;-80
2021/05/07 06:28:44;;;;;;;9.50;2.20;;;;;;;12.42;61.20;97766.66;124769;1097;64476;-80
2021/05/07 06:31:11;;;;;;;7.80;1.80;;;;;;;12.46;61.11;97768.06;124742;1101;64331;-80
2021/05/07 06:33:38;;;;;;;2.33;1.37;;;;;;;12.69;60.94;97758.70;124768;1095;64315;-80
2021/05/07 06:36:05;;;;;;;7.33;2.13;;;;;;;13.01;60.50;97759.28;124746;1096;64275;-80
2021/05/07 06:38:32;;;;;;;13.30;2.37;;;;;;;13.15;60.53;97770.31;124740;1096;64403;-80
2021/05/07 06:40:58;;;;;;;1.20;1.10;;;;;;;13.16;60.08;97760.45;124792;1096;64308;-80
2021/05/07 06:43:25;;;;;;;2.73;1.50;;;;;;;13.27;60.22;97770.13;124758;1097;64441;-81
2021/05/07 06:45:52;;;;;;;3.13;1.33;;;;;;;13.40;59.96;97770.61;124841;1101;64351;-82
2021/05/07 06:48:19;;;;;;;2.97;1.50;;;;;;;13.42;60.20;97762.44;124805;1096;64300;-79
2021/05/07 06:50:45;;;;;;;1.57;1.20;;;;;;;13.44;59.99;97777.36;124755;1096;64323;-80
2021/05/07 06:53:12;;;;;;;7.53;2.83;;;;;;;13.43;60.18;97774.82;124791;1095;64335;-80
2021/05/07 06:55:39;;;;;;;4.27;2.00;;;;;;;13.45;60.14;97775.52;124849;1096;64291;-79
2021/05/07 06:58:06;;;;;;;3.40;2.30;;;;;;;13.49;60.28;97777.75;124787;1101;64303;-80
2021/05/07 07:00:33;;;;;;;3.77;2.00;;;;;;;13.54;60.08;97770.11;124762;1101;64281;-80
2021/05/07 07:03:00;;;;;;;2.30;1.67;;;;;;;13.48;59.66;97778.75;124763;1101;64326;-80
2021/05/07 07:05:28;;;;;;;3.37;1.40;;;;;;;13.38;59.73;97770.78;124720;1096;64250;-80
2021/05/07 07:07:55;;;;;;;1.50;1.30;;;;;;;13.24;59.65;97773.08;124728;1101;64282;-81
2021/05/07 07:10:22;;;;;;;2.30;1.50;;;;;;;13.13;59.70;97774.13;124859;1097;64435;-81
2021/05/07 07:12:49;;;;;;;2.90;1.70;;;;;;;12.99;60.13;97771.95;124856;1101;64320;-81
2021/05/07 07:15:17;;;;;;;2.80;1.70;;;;;;;12.84;60.20;97776.93;124849;1096;64490;-80
2021/05/07 07:17:43;;;;;;;6.15;2.40;;;;;;;12.76;60.64;97766.13;124860;1096;64327;-80
2021/05/07 07:20:11;;;;;;;3.20;1.85;;;;;;;12.71;60.68;97775.42;124864;1101;64333;-80
2021/05/07 07:22:37;;;;;;;4.97;2.20;;;;;;;12.68;60.82;97767.70;124860;1096;64402;-80
2021/05/07 07:25:05;;;;;;;3.37;2.40;;;;;;;12.69;60.85;97777.42;124871;1101;64355;-80
2021/05/07 07:27:32;;;;;;;8.57;2.87;;;;;;;12.79;60.82;97779.20;124851;1096;64364;-80
2021/05/07 07:29:59;;;;;;;3.97;2.60;;;;;;;12.87;60.89;97771.28;124808;1101;64319;-80
2021/05/07 07:32:26;;;;;;;5.70;2.60;;;;;;;13.04;60.84;97764.33;124834;1101;64423;-80
2021/05/07 07:34:56;;;;;;;3.40;2.27;;;;;;;13.30;60.68;97775.20;124799;1101;64326;-80
2021/05/07 07:37:23;;;;;;;3.80;2.70;;;;;;;13.69;59.66;97769.57;124893;1096;64412;-81
2021/05/07 07:39:50;;;;;;;1.97;1.73;;;;;;;14.10;58.86;97764.59;124844;1101;64410;-81
2021/05/07 07:42:17;;;;;;;2.73;1.60;;;;;;;14.50;58.53;97756.83;124873;1101;64455;-80
2021/05/07 07:44:44;;;;;;;2.57;1.30;;;;;;;14.85;56.61;97759.58;124846;1096;64240;-82
2021/05/07 07:47:11;;;;;;;2.30;1.37;;;;;;;15.15;56.38;97758.22;124830;1101;64275;-81
2021/05/07 07:49:39;;;;;;;4.10;1.47;;;;;;;15.38;55.74;97755.78;124948;1096;64336;-83
2021/05/07 07:52:08;;;;;;;6.57;1.57;;;;;;;15.61;55.16;97755.98;124738;1101;64560;-83
2021/05/07 07:54:35;;;;;;;1.90;1.00;;;;;;;15.74;55.12;97769.80;124888;1096;64262;-80
2021/05/07 07:57:02;;;;;;;8.50;1.80;;;;;;;15.95;55.08;97779.23;124918;1101;64432;-79
2021/05/07 07:59:29;;;;;;;5.20;1.83;;;;;;;16.24;55.00;97786.80;124846;1096;64330;-82
2021/05/07 08:01:57;;;;;;;2.93;1.33;;;;;;;16.42;53.79;97789.33;124900;1096;64368;-82
2021/05/07 08:04:23;;;;;;;1.63;1.33;;;;;;;16.39;54.09;97797.73;124793;1101;64323;-80
2021/05/07 08:06:51;;;;;;;1.53;1.23;;;;;;;16.31;52.00;97801.27;124819;1101;64351;-80
2021/05/07 08:09:18;;;;;;;2.03;1.50;;;;;;;16.06;53.51;97805.81;124854;1095;64300;-80
2021/05/07 08:11:45;;;;;;;4.00;1.30;;;;;;;15.78;52.87;97792.66;124833;1096;64303;-79
2021/05/07 08:14:11;;;;;;;1.70;1.35;;;;;;;15.49;53.88;97811.86;124890;1101;64246;-80
2021/05/07 08:16:39;;;;;;;1.77;1.27;;;;;;;15.34;54.08;97806.25;124809;1101;64323;-80
2021/05/07 08:19:06;;;;;;;2.53;1.70;;;;;;;15.18;54.36;97816.92;124967;1096;64394;-81
2021/05/07 08:21:34;;;;;;;1.90;1.50;;;;;;;15.04;54.63;97828.27;124865;1097;64256;-80
2021/05/07 08:24:00;;;;;;;2.53;1.40;;;;;;;14.90;54.53;97816.27;124882;1101;64339;-80
2021/05/07 08:26:27;;;;;;;2.13;1.47;;;;;;;14.71;55.05;97836.11;124808;1101;64334;-81
2021/05/07 08:28:54;;;;;;;2.35;1.35;;;;;;;14.57;55.32;97828.64;124763;1097;64428;-81
2021/05/07 08:31:21;;;;;;;1.90;1.40;;;;;;;14.50;55.25;97831.89;124846;1101;64338;-80
2021/05/07 08:33:48;;;;;;;2.43;1.90;;;;;;;14.43;55.80;97833.54;124789;1101;64332;-81
2021/05/07 08:36:15;;;;;;;2.27;1.53;;;;;;;14.39;56.02;97834.00;124911;1101;64378;-79
2021/05/07 08:38:41;;;;;;;2.40;1.23;;;;;;;14.58;55.76;97838.36;124734;1101;64333;-80
2021/05/07 08:41:08;;;;;;;2.43;1.50;;;;;;;14.78;54.94;97826.44;124726;1101;64364;-80
2021/05/07 08:43:35;;;;;;;1.97;1.37;;;;;;;15.17;55.05;97834.05;124848;1101;64458;-79
2021/05/07 08:46:06;;;;;;;2.45;1.70;;;;;;;15.50;55.30;97824.27;124763;1096;64352;-80
2021/05/07 08:48:34;;;;;;;2.17;1.73;;;;;;;15.78;54.97;97805.25;124816;1096;64255;-80
2021/05/07 08:51:02;;;;;;;3.77;2.00;;;;;;;15.93;53.93;97824.23;124819;1097;64255;-86
2021/05/07 08:53:30;;;;;;;5.20;2.20;;;;;;;16.17;53.85;97820.77;124928;1101;64349;-77
2021/05/07 08:56:02;;;;;;;2.67;1.80;;;;;;;16.30;53.54;97828.30;124757;1101;64329;-82
2021/05/07 08:58:29;;;;;;;1.60;1.50;;;;;;;16.27;52.71;97840.23;124821;1101;64343;-82
2021/05/07 09:00:57;;;;;;;3.63;1.50;;;;;;;16.10;52.31;97847.45;124879;1095;64317;-83
2021/05/07 09:03:25;;;;;;;2.10;1.20;;;;;;;16.05;52.97;97849.80;124887;1101;64338;-83
2021/05/07 09:05:51;;;;;;;1.87;1.50;;;;;;;15.98;53.16;97841.57;124864;1096;64410;-82
2021/05/07 09:08:18;;;;;;;2.83;1.47;;;;;;;15.99;53.19;97832.48;124782;1097;64380;-82
2021/05/07 09:10:46;;;;;;;2.10;1.67;;;;;;;16.07;52.66;97838.89;124854;1096;64386;-81
2021/05/07 09:13:20;;;;;;;2.10;1.53;;;;;;;15.87;52.08;97836.48;124907;1097;64329;-81
2021/05/07 09:15:50;;;;;;;1.80;1.50;;;;;;;15.87;52.67;97841.02;124924;1101;64275;-79
2021/05/07 09:18:18;;;;;;;9.20;2.10;;;;;;;16.04;52.41;97823.94;124900;1097;64513;-82
2021/05/07 09:20:49;;;;;;;1.30;1.13;;;;;;;16.22;51.57;97839.92;124872;1096;64364;-82
2021/05/07 09:23:17;;;;;;;1.70;1.20;;;;;;;16.24;50.55;97830.69;124903;1101;64333;-82
2021/05/07 09:25:46;;;;;;;2.03;1.40;;;;;;;16.25;50.31;97866.47;124904;1101;64246;-82
2021/05/07 09:28:16;;;;;;;1.97;1.03;;;;;;;16.21;50.31;97862.41;124950;1101;64392;-82
2021/05/07 09:30:45;;;;;;;1.58;1.10;;;;;;;16.37;50.53;97857.05;124974;1101;64316;-80
2021/05/07 09:33:14;;;;;;;2.30;1.40;;;;;;;16.50;50.92;97867.31;124890;1101;64325;-81
2021/05/07 09:35:42;;;;;;;3.13;1.50;;;;;;;16.54;49.80;97871.36;124853;1096;64332;-82
2021/05/07 09:38:13;;;;;;;1.35;1.00;;;;;;;16.47;50.57;97881.09;124903;1101;64719;-83
2021/05/07 09:40:42;;;;;;;2.55;1.70;;;;;;;16.44;49.48;97876.06;124998;1101;64333;-82
2021/05/07 09:43:15;;;;;;;1.23;1.07;;;;;;;16.45;48.99;97875.03;124940;1096;64358;-82
2021/05/07 09:45:46;;;;;;;2.00;1.00;;;;;;;16.22;49.42;97867.64;124971;1096;64323;-82
2021/05/07 09:48:22;;;;;;;1.50;1.10;;;;;;;15.98;50.12;97883.70;124954;1101;64326;-85
2021/05/07 09:50:51;;;;;;;1.97;1.40;;;;;;;16.12;50.68;97874.18;125059;1101;64402;-85
2021/05/07 09:53:20;;;;;;;1.03;0.90;;;;;;;16.36;51.12;97866.13;124834;1101;64371;-84
2021/05/07 09:55:50;;;;;;;3.15;1.30;;;;;;;16.54;51.19;97857.08;124936;1096;64371;-84
2021/05/07 09:58:17;;;;;;;2.20;1.35;;;;;;;16.53;50.35;97850.83;125073;1101;64300;-82
2021/05/07 10:00:44;;;;;;;1.77;0.90;;;;;;;16.46;50.45;97860.60;125359;1096;64250;-82
2021/05/07 10:03:11;;;;;;;1.40;1.20;;;;;;;16.31;50.36;97873.86;125129;1101;64328;-81
2021/05/07 10:05:38;;;;;;;3.03;1.53;;;;;;;16.32;51.36;97880.91;125124;1096;64338;-81
2021/05/07 10:08:06;;;;;;;2.00;1.20;;;;;;;16.34;50.83;97886.97;125043;1101;64326;-81
2021/05/07 10:10:40;;;;;;;1.33;1.07;;;;;;;16.43;50.80;97869.02;125033;1101;64315;-82
2021/05/07 10:13:12;;;;;;;2.53;1.13;;;;;;;16.33;50.82;97906.80;124814;1101;64345;-83
2021/05/07 10:15:41;;;;;;;1.27;0.70;;;;;;;16.10;50.10;97901.20;124815;1097;64424;-82
2021/05/07 10:18:11;;;;;;;0.90;0.60;;;;;;;15.84;50.73;97917.42;124861;1096;64275;-82
2021/05/07 10:20:40;;;;;;;;;;;;;;;15.45;52.17;97922.42;124869;1101;64265;-81
2021/05/07 10:23:20;;;;;;;2.10;0.70;;;;;;;15.06;53.40;97926.40;124813;1097;64437;-81
2021/05/07 10:26:01;;;;;;;1.20;1.00;;;;;;;14.79;55.20;97934.56;124937;1096;64399;-84
2021/05/07 10:28:45;;;;;;;1.60;1.20;;;;;;;14.77;55.86;97933.86;124871;1096;64326;-82
2021/05/07 10:31:15;;;;;;;3.33;1.60;;;;;;;14.95;55.65;97932.00;124909;1101;64419;-83
2021/05/07 10:34:01;;;;;;;1.70;1.03;;;;;;;15.30;55.22;97930.23;124960;1101;64399;-82
2021/05/07 10:36:40;;;;;;;0.87;0.80;;;;;;;15.51;54.24;97925.31;125045;1101;64913;-83
2021/05/07 10:39:23;;;;;;;2.37;0.70;;;;;;;15.69;54.64;97916.34;124929;1096;64355;-84
2021/05/07 10:41:52;;;;;;;1.45;0.55;;;;;;;15.77;53.44;97905.63;125000;1101;64339;-88
2021/05/07 10:44:20;;;;;;;2.13;0.90;;;;;;;15.76;53.92;97904.80;124871;1101;64441;-82
2021/05/07 10:47:14;;;;;;;1.40;0.80;;;;;;;15.79;53.68;97915.21;124865;1101;64348;-84
2021/05/07 10:49:44;;;;;;;2.30;1.07;;;;;;;15.87;54.18;97903.66;124808;1097;64310;-82
2021/05/07 10:52:16;;;;;;;1.00;0.83;;;;;;;15.92;53.84;97905.86;124897;1101;64317;-81
2021/05/07 10:54:54;;;;;;;1.13;0.90;;;;;;;15.90;52.32;97902.48;124897;1096;64360;-81
2021/05/07 10:57:21;;;;;;;0.77;0.77;;;;;;;15.99;53.29;97909.59;124896;1101;64303;-82
2021/05/07 11:00:12;;;;;;;1.00;0.90;;;;;;;16.09;53.24;97902.23;124871;1096;64371;-82
2021/05/07 11:02:48;;;;;;;1.73;1.30;;;;;;;16.44;52.77;97901.09;124914;1096;64483;-82
2021/05/07 11:05:35;;;;;;;2.50;1.30;;;;;;;16.74;52.76;97906.81;124918;1101;64686;-81
2021/05/07 11:08:04;;;;;;;1.60;1.50;;;;;;;16.84;51.98;97903.99;124917;1097;64329;-82
2021/05/07 11:10:31;;;;;;;2.40;1.40;;;;;;;16.88;52.54;97899.97;124902;1101;64255;-81
2021/05/07 11:12:59;;;;;;;3.67;1.63;;;;;;;16.98;51.08;97906.02;124877;1101;64331;-82
2021/05/07 11:15:26;;;;;;;2.77;1.40;;;;;;;17.03;50.25;97903.63;124886;1096;64441;-82
2021/05/07 11:17:58;;;;;;;2.37;1.33;;;;;;;16.78;50.55;97918.97;124828;1101;64323;-82
2021/05/07 11:20:40;;;;;;;3.67;1.70;;;;;;;16.07;48.76;97914.14;124880;1097;64319;-82
2021/05/07 11:23:13;;;;;;;2.23;1.73;;;;;;;15.54;49.44;97906.20;124853;1101;64310;-81
2021/05/07 11:25:41;;;;;;;4.87;1.60;;;;;;;15.24;50.29;97915.59;124854;1101;64491;-80
2021/05/07 11:28:11;;;;;;;1.50;1.40;;;;;;;14.93;49.76;97925.97;124912;1095;64333;-79
2021/05/07 11:30:53;;;;;;;1.80;1.70;;;;;;;14.64;51.08;97916.36;124883;1101;64339;-82
2021/05/07 11:33:26;;;;;;;2.17;1.93;;;;;;;14.64;51.91;97920.84;124861;1095;64249;-82
2021/05/07 11:36:12;;;;;;;2.57;2.20;;;;;;;14.77;51.74;97929.37;124880;1096;64250;-81